Shantou, Guangdong

9:38 PM CST on October 25, 2014 (GMT +0800)
Shantou | Change Station
CLOSE
Current Station
Airport
Location: Shantou,
Elevation: 10 ft
Nearby Weather Stations

Elev 10 ft 23.55 °N, 116.51 °E | Updated 38 minutes ago

Clear
Clear
75 °F
Feels Like 75 °F
N
4
Wind Variable Wind from East

Today
High -- | Low -- °F
--% Chance of Precip.
Yesterday
High -- | Low -- °F
Precip. -- in
6:14 AM 5:39 PM
Waxing Crescent, 3% visible
Pressure 30.06 in
Visibility -9999.0 miles
Clouds
Dew Point 70 °F
Humidity 83%
Rainfall 0.00 in
Snow Depth Not available.
UV Not available.
Pollen Not available.
Air Quality Not available.
Flu Activity Not available.
METAR ZGOW 251300Z 09002MPS 050V120 CAVOK 24/21 Q1018 NOSIG

More Conditions Fewer Conditions

Pressure 30.06 in
Visibility -9999.0 miles
Clouds
Dew Point 70 °F
Humidity 83%
Rainfall 0.00 in
Snow Depth Not available.
UV Not available.
Pollen Not available.
Air Quality Not available.
Flu Activity Not available.
METAR ZGOW 251300Z 09002MPS 050V120 CAVOK 24/21 Q1018 NOSIG

More Conditions Fewer Conditions

10-Day Weather Forecast

Almanac

Astronomy

Oct. 25, 2014 Rise Set
Actual Time 6:14 AM CST 5:39 PM CST
Civil Twilight 5:51 AM CST 6:02 PM CST
Nautical Twilight 5:25 AM CST 6:29 PM CST
Astronomical Twilight 4:58 AM CST 6:55 PM CST
Moon 7:13 AM CST 6:44 PM CST
Length of Visible Light 12h 10m
Length of Day
11h 24m
Tomorrow will be 1m 14s shorter.
Waxing Crescent, 3% of the Moon is Illuminated
Today
Waxing Crescent
Oct 30
First Quarter
Nov 6
Full
Nov 14
Last Quarter
Nov 22
New

Yesterday's Extremes

Country Highs Country Lows

Community

WunderPhotos

Upload Photos

1,764,829 photos uploaded!

Nearby

Snow Depth

Not available.

Earthquake Activity

City Distance Mag. Time & Date
No recent earthquake activity has been reported nearby.
Minimum magnitude displayed is 2.5.

Coastal Water Temperatures

Place Temperature
No Stations Reporting

Nearby Weather Stations